createdAt,value
2023-08-11T00:00:14.031Z,22.70
2023-08-11T00:01:14.074Z,23.00
2023-08-11T00:02:14.012Z,22.80
2023-08-11T00:03:14.095Z,21.70
2023-08-11T00:04:14.061Z,22.60
2023-08-11T00:05:14.017Z,20.90
2023-08-11T00:06:13.972Z,22.70
2023-08-11T00:07:14.045Z,20.90
2023-08-11T00:08:13.946Z,21.50
2023-08-11T00:09:14.027Z,22.60
2023-08-11T00:10:13.940Z,21.90
2023-08-11T00:11:14.007Z,22.60
2023-08-11T00:12:13.949Z,22.50
2023-08-11T00:13:14.096Z,23.00
2023-08-11T00:14:13.874Z,22.10
2023-08-11T00:15:13.892Z,22.70
2023-08-11T00:16:14.100Z,23.00
2023-08-11T00:17:13.935Z,23.20
2023-08-11T00:18:13.841Z,23.20
2023-08-11T00:19:14.599Z,22.50
2023-08-11T00:20:13.829Z,22.60
2023-08-11T00:21:14.574Z,22.10
2023-08-11T00:22:13.941Z,21.90
2023-08-11T00:23:13.848Z,22.80
2023-08-11T00:24:13.920Z,23.10
2023-08-11T00:25:13.869Z,23.00
2023-08-11T00:26:13.742Z,22.60
2023-08-11T00:27:13.880Z,22.40
2023-08-11T00:28:13.736Z,22.10
2023-08-11T00:29:13.813Z,22.50
2023-08-11T00:30:13.831Z,22.20
2023-08-11T00:31:13.751Z,23.10
2023-08-11T00:32:13.685Z,21.80
2023-08-11T00:33:13.712Z,22.10
2023-08-11T00:34:13.723Z,22.60
2023-08-11T00:35:13.660Z,21.80
2023-08-11T00:36:13.627Z,21.30
2023-08-11T00:37:13.733Z,22.40
2023-08-11T00:38:13.601Z,21.80
2023-08-11T00:39:13.625Z,21.20
2023-08-11T00:40:13.713Z,22.10
2023-08-11T00:41:13.627Z,20.90
2023-08-11T00:42:13.564Z,20.60
2023-08-11T00:43:13.580Z,20.70
2023-08-11T00:44:13.556Z,20.10
2023-08-11T00:45:14.487Z,21.40
2023-08-11T00:46:13.558Z,20.70
2023-08-11T00:47:13.611Z,19.60
2023-08-11T00:48:13.502Z,20.50
2023-08-11T00:49:13.583Z,19.30
2023-08-11T00:50:13.499Z,20.70
2023-08-11T00:51:13.501Z,18.40
2023-08-11T00:52:13.478Z,19.30
2023-08-11T00:53:13.473Z,19.40
2023-08-11T00:54:13.428Z,16.80
2023-08-11T00:55:13.449Z,18.00
2023-08-11T00:56:13.524Z,16.90
2023-08-11T00:57:13.502Z,16.40
2023-08-11T00:58:13.438Z,17.00
2023-08-11T00:59:13.394Z,16.20
2023-08-11T01:00:13.804Z,16.00
2023-08-11T01:01:13.472Z,14.90
2023-08-11T01:02:13.419Z,14.00
2023-08-11T01:03:13.377Z,15.40
2023-08-11T01:04:13.343Z,14.00
2023-08-11T01:05:13.368Z,13.70
2023-08-11T01:06:13.359Z,13.40
2023-08-11T01:07:13.313Z,13.80
2023-08-11T01:08:13.321Z,13.30
2023-08-11T01:09:13.606Z,13.40
2023-08-11T01:10:13.421Z,12.90
2023-08-11T01:11:13.269Z,12.10
2023-08-11T01:12:13.331Z,12.00
2023-08-11T01:13:13.282Z,12.00
2023-08-11T01:14:13.234Z,12.00
2023-08-11T01:15:13.251Z,11.50
2023-08-11T01:16:13.197Z,11.40
2023-08-11T01:17:13.238Z,10.70
2023-08-11T01:18:13.167Z,10.70
2023-08-11T01:19:13.249Z,10.50
2023-08-11T01:20:13.222Z,10.70
2023-08-11T01:21:13.220Z,11.10
2023-08-11T01:22:13.201Z,10.70
2023-08-11T01:23:13.132Z,10.60
2023-08-11T01:24:13.111Z,10.80
2023-08-11T01:25:13.113Z,10.00
2023-08-11T01:26:13.086Z,9.40
2023-08-11T01:27:13.174Z,9.40
2023-08-11T01:28:13.124Z,9.40
2023-08-11T01:29:13.115Z,9.00
2023-08-11T01:30:13.035Z,9.60
2023-08-11T01:31:13.039Z,8.90
2023-08-11T01:32:13.133Z,8.60
2023-08-11T01:33:13.063Z,8.80
2023-08-11T01:34:13.082Z,8.60
2023-08-11T01:35:17.308Z,8.70
2023-08-11T01:36:12.998Z,8.90
2023-08-11T01:37:12.955Z,8.50
2023-08-11T01:38:13.033Z,8.50
2023-08-11T01:39:12.942Z,9.20
2023-08-11T01:40:13.016Z,8.50
2023-08-11T01:41:12.963Z,8.50
2023-08-11T01:42:12.926Z,8.30
2023-08-11T01:43:13.067Z,8.40
2023-08-11T01:44:12.901Z,7.90
2023-08-11T01:45:12.890Z,8.30
2023-08-11T01:46:12.933Z,7.70
2023-08-11T01:47:12.874Z,7.80
2023-08-11T01:48:12.861Z,7.70
2023-08-11T01:49:12.930Z,8.10
2023-08-11T01:50:12.900Z,7.90
2023-08-11T01:51:13.484Z,7.80
2023-08-11T01:52:13.085Z,8.20
2023-08-11T01:53:12.840Z,8.00
2023-08-11T01:54:12.924Z,7.60
2023-08-11T01:55:12.824Z,7.80
2023-08-11T01:56:12.781Z,7.70
2023-08-11T01:57:12.768Z,8.00
2023-08-11T01:58:12.809Z,8.20
2023-08-11T01:59:12.724Z,7.60
2023-08-11T02:00:12.791Z,7.90
2023-08-11T02:01:12.707Z,7.40
2023-08-11T02:02:12.763Z,7.80
2023-08-11T02:03:12.754Z,7.30
2023-08-11T02:04:12.957Z,7.60
2023-08-11T02:05:12.691Z,7.40
2023-08-11T02:06:12.665Z,7.50
2023-08-11T02:07:12.627Z,7.70
2023-08-11T02:08:12.648Z,7.30
2023-08-11T02:09:12.606Z,7.80
2023-08-11T02:10:12.680Z,7.00
2023-08-11T02:11:12.575Z,7.50
2023-08-11T02:12:12.714Z,8.10
2023-08-11T02:13:12.558Z,7.80
2023-08-11T02:14:12.595Z,7.30
2023-08-11T02:15:12.554Z,7.30
2023-08-11T02:16:12.598Z,7.50
2023-08-11T02:17:12.521Z,8.20
2023-08-11T02:18:12.559Z,7.40
2023-08-11T02:19:12.494Z,7.90
2023-08-11T02:20:12.505Z,7.30
2023-08-11T02:21:12.469Z,7.90
2023-08-11T02:22:12.491Z,7.80
2023-08-11T02:23:12.492Z,7.60
2023-08-11T02:24:12.459Z,7.30
2023-08-11T02:25:12.423Z,6.90
2023-08-11T02:26:12.480Z,8.10
2023-08-11T02:27:12.409Z,7.70
2023-08-11T02:28:12.411Z,7.20
2023-08-11T02:29:13.122Z,7.00
2023-08-11T02:30:12.383Z,7.30
2023-08-11T02:31:12.395Z,7.30
2023-08-11T02:32:12.370Z,7.00
2023-08-11T02:33:12.385Z,7.20
2023-08-11T02:34:12.372Z,7.40
2023-08-11T02:35:12.306Z,7.20
2023-08-11T02:36:12.313Z,6.80
2023-08-11T02:37:12.335Z,7.20
2023-08-11T02:38:12.290Z,6.90
2023-08-11T02:39:12.314Z,6.90
2023-08-11T02:40:12.457Z,7.00
2023-08-11T02:41:12.254Z,6.90
2023-08-11T02:42:12.247Z,7.40
2023-08-11T02:43:12.280Z,7.30
2023-08-11T02:44:12.224Z,7.60
2023-08-11T02:45:12.276Z,7.30
2023-08-11T02:46:12.271Z,7.30
2023-08-11T02:47:12.218Z,7.00
2023-08-11T02:48:12.235Z,7.30
2023-08-11T02:49:12.207Z,7.60
2023-08-11T02:50:12.315Z,7.50
2023-08-11T02:51:12.199Z,7.50
2023-08-11T02:52:12.161Z,7.50
2023-08-11T02:53:12.106Z,7.60
2023-08-11T02:54:12.141Z,7.60
2023-08-11T02:55:12.094Z,7.80
2023-08-11T02:56:12.112Z,8.00
2023-08-11T02:57:12.831Z,8.00
2023-08-11T02:58:12.078Z,7.80
2023-08-11T02:59:12.091Z,7.50
2023-08-11T03:00:12.108Z,7.90
2023-08-11T03:01:12.074Z,7.70
2023-08-11T03:02:12.048Z,7.50
2023-08-11T03:03:12.098Z,7.20
2023-08-11T03:04:11.999Z,7.30
2023-08-11T03:05:11.974Z,7.20
2023-08-11T03:06:11.984Z,7.60
2023-08-11T03:07:11.943Z,7.30
2023-08-11T03:08:11.979Z,7.30
2023-08-11T03:09:11.985Z,7.80
2023-08-11T03:10:12.043Z,7.90
2023-08-11T03:11:11.898Z,7.50
2023-08-11T03:12:11.937Z,7.50
2023-08-11T03:13:11.876Z,8.10
2023-08-11T03:14:11.890Z,7.10
2023-08-11T03:15:11.857Z,7.60
2023-08-11T03:16:11.910Z,7.10
2023-08-11T03:17:11.835Z,7.40
2023-08-11T03:18:11.840Z,7.10
2023-08-11T03:19:11.815Z,7.40
2023-08-11T03:20:11.917Z,7.60
2023-08-11T03:21:19.729Z,7.30
2023-08-11T03:22:11.877Z,7.80
2023-08-11T03:23:11.768Z,7.70
2023-08-11T03:24:14.652Z,7.40
2023-08-11T03:25:11.749Z,7.10
2023-08-11T03:26:11.758Z,7.60
2023-08-11T03:27:11.720Z,7.20
2023-08-11T03:28:11.735Z,7.20
2023-08-11T03:29:11.703Z,7.20
2023-08-11T03:30:11.714Z,7.40
2023-08-11T03:31:11.688Z,7.50
2023-08-11T03:32:12.001Z,7.20
2023-08-11T03:33:11.658Z,7.40
2023-08-11T03:34:11.676Z,7.10
2023-08-11T03:35:11.661Z,7.10
2023-08-11T03:36:11.651Z,7.80
2023-08-11T03:37:11.612Z,7.70
2023-08-11T03:38:11.634Z,7.60
2023-08-11T03:39:11.596Z,7.20
2023-08-11T03:40:11.660Z,7.50
2023-08-11T03:41:11.569Z,7.50
2023-08-11T03:42:14.109Z,7.80
2023-08-11T03:43:11.541Z,7.80
2023-08-11T03:44:11.595Z,7.40
2023-08-11T03:45:11.528Z,7.70
2023-08-11T03:46:11.739Z,7.50
2023-08-11T03:47:11.497Z,7.20
2023-08-11T03:48:11.506Z,7.60
2023-08-11T03:49:11.544Z,7.60
2023-08-11T03:50:11.538Z,7.50
2023-08-11T03:51:11.462Z,6.90
2023-08-11T03:52:11.837Z,7.00
2023-08-11T03:53:11.475Z,7.00
2023-08-11T03:54:11.455Z,7.00
2023-08-11T03:55:11.414Z,7.00
2023-08-11T03:56:11.484Z,7.10
2023-08-11T03:57:11.388Z,6.90
2023-08-11T03:58:11.422Z,6.60
2023-08-11T03:59:11.374Z,6.30
2023-08-11T04:00:11.388Z,7.00
2023-08-11T04:01:11.438Z,6.60
2023-08-11T04:02:11.438Z,6.80
2023-08-11T04:03:11.395Z,6.40
2023-08-11T04:04:12.169Z,6.60
2023-08-11T04:05:11.359Z,6.60
2023-08-11T04:06:11.381Z,6.40
2023-08-11T04:07:11.347Z,6.30
2023-08-11T04:08:11.292Z,6.70
2023-08-11T04:09:11.269Z,6.20
2023-08-11T04:10:11.495Z,6.50
2023-08-11T04:11:11.237Z,6.80
2023-08-11T04:12:11.470Z,6.10
2023-08-11T04:13:11.207Z,6.70
2023-08-11T04:14:11.222Z,6.90
2023-08-11T04:15:11.241Z,6.10
2023-08-11T04:16:11.246Z,6.80
2023-08-11T04:17:11.180Z,6.40
2023-08-11T04:18:11.227Z,5.80
2023-08-11T04:19:11.194Z,6.10
2023-08-11T04:20:11.160Z,6.10
2023-08-11T04:21:11.132Z,6.30
2023-08-11T04:22:11.303Z,5.80
2023-08-11T04:23:11.108Z,6.00
2023-08-11T04:24:11.132Z,6.40
2023-08-11T04:25:11.072Z,6.10
2023-08-11T04:26:11.141Z,6.40
2023-08-11T04:27:11.072Z,6.30
2023-08-11T04:28:11.108Z,6.00
2023-08-11T04:29:11.052Z,6.30
2023-08-11T04:30:11.057Z,6.30
2023-08-11T04:31:11.139Z,6.50
2023-08-11T04:32:11.391Z,6.90
2023-08-11T04:33:11.040Z,6.20
2023-08-11T04:34:11.016Z,6.60
2023-08-11T04:35:11.013Z,6.60
2023-08-11T04:36:11.039Z,6.30
2023-08-11T04:37:10.957Z,6.00
2023-08-11T04:38:10.954Z,6.70
2023-08-11T04:39:11.017Z,6.40
2023-08-11T04:40:11.031Z,6.20
2023-08-11T04:41:10.991Z,5.80
2023-08-11T04:42:11.150Z,6.00
2023-08-11T04:43:10.939Z,5.80
2023-08-11T04:44:10.892Z,6.20
2023-08-11T04:45:10.868Z,6.10
2023-08-11T04:46:10.906Z,6.10
2023-08-11T04:47:10.869Z,6.40
2023-08-11T04:48:10.921Z,6.00
2023-08-11T04:49:10.865Z,5.70
2023-08-11T04:50:10.831Z,6.00
2023-08-11T04:51:10.786Z,5.90
2023-08-11T04:52:11.035Z,5.60
2023-08-11T04:53:10.759Z,6.00
2023-08-11T04:54:10.786Z,5.80
2023-08-11T04:55:10.737Z,6.10
2023-08-11T04:56:10.759Z,6.40
2023-08-11T04:57:10.720Z,6.20
2023-08-11T04:58:10.745Z,6.10
2023-08-11T04:59:10.756Z,6.20
2023-08-11T05:00:10.790Z,6.40
2023-08-11T05:01:10.715Z,5.90
2023-08-11T05:02:11.078Z,5.60
2023-08-11T05:03:10.769Z,6.00
2023-08-11T05:04:10.676Z,6.00
2023-08-11T05:05:10.650Z,5.70
2023-08-11T05:06:10.637Z,5.60
2023-08-11T05:07:10.939Z,6.00
2023-08-11T05:08:10.679Z,5.60
2023-08-11T05:09:10.629Z,5.90
2023-08-11T05:10:10.673Z,6.10
2023-08-11T05:11:10.565Z,5.60
2023-08-11T05:12:10.887Z,5.60
2023-08-11T05:13:10.546Z,6.20
2023-08-11T05:14:10.560Z,5.80
2023-08-11T05:15:10.531Z,6.50
2023-08-11T05:16:10.584Z,5.70
2023-08-11T05:17:10.822Z,6.50
2023-08-11T05:18:10.529Z,5.70
2023-08-11T05:19:10.466Z,6.10
2023-08-11T05:20:10.495Z,6.10
2023-08-11T05:21:10.448Z,5.90
2023-08-11T05:22:10.535Z,5.70
2023-08-11T05:23:10.430Z,5.20
2023-08-11T05:24:10.480Z,5.80
2023-08-11T05:25:10.413Z,6.40
2023-08-11T05:26:10.432Z,6.20
2023-08-11T05:27:10.606Z,5.40
2023-08-11T05:28:10.462Z,6.00
2023-08-11T05:29:12.208Z,5.90
2023-08-11T05:30:10.380Z,5.70
2023-08-11T05:31:10.342Z,5.90
2023-08-11T05:32:10.427Z,6.00
2023-08-11T05:33:10.315Z,5.90
2023-08-11T05:34:10.337Z,6.00
2023-08-11T05:35:10.299Z,5.30
2023-08-11T05:36:10.300Z,5.80
2023-08-11T05:37:10.731Z,5.70
2023-08-11T05:38:10.278Z,5.80
2023-08-11T05:39:10.245Z,6.00
2023-08-11T05:40:10.286Z,5.40
2023-08-11T05:41:10.269Z,5.70
2023-08-11T05:42:10.244Z,5.30
2023-08-11T05:43:10.216Z,5.30
2023-08-11T05:44:10.184Z,5.50
2023-08-11T05:45:10.250Z,5.60
2023-08-11T05:46:10.222Z,6.80
2023-08-11T05:47:10.355Z,5.50
2023-08-11T05:48:10.174Z,5.70
2023-08-11T05:49:10.167Z,5.90
2023-08-11T05:50:10.142Z,6.00
2023-08-11T05:51:10.180Z,6.10
2023-08-11T05:52:10.159Z,5.80
2023-08-11T05:53:10.118Z,6.00
2023-08-11T05:54:10.076Z,6.30
2023-08-11T05:55:10.134Z,6.00
2023-08-11T05:56:10.076Z,5.80
2023-08-11T05:57:10.345Z,6.10
2023-08-11T05:58:10.048Z,6.10
2023-08-11T05:59:10.040Z,5.80
2023-08-11T06:00:10.021Z,5.90
2023-08-11T06:01:10.062Z,6.40
2023-08-11T06:02:10.057Z,6.00
2023-08-11T06:03:10.052Z,5.70
2023-08-11T06:04:09.990Z,5.60
2023-08-11T06:05:10.024Z,6.00
2023-08-11T06:06:09.946Z,6.10
2023-08-11T06:07:10.335Z,5.90
2023-08-11T06:08:09.920Z,5.50
2023-08-11T06:09:09.938Z,6.10
2023-08-11T06:10:09.904Z,6.30
2023-08-11T06:11:09.922Z,5.80
2023-08-11T06:12:09.919Z,6.00
2023-08-11T06:13:09.898Z,5.50
2023-08-11T06:14:09.856Z,6.30
2023-08-11T06:15:09.896Z,6.40
2023-08-11T06:16:09.943Z,5.70
2023-08-11T06:17:12.626Z,6.40
2023-08-11T06:18:09.852Z,5.80
2023-08-11T06:19:09.814Z,6.20
2023-08-11T06:20:09.842Z,5.80
2023-08-11T06:21:09.812Z,5.80
2023-08-11T06:22:09.829Z,5.40
2023-08-11T06:23:09.854Z,5.80
2023-08-11T06:24:09.808Z,6.30
2023-08-11T06:25:09.775Z,5.50
2023-08-11T06:26:09.715Z,6.40
2023-08-11T06:27:09.901Z,5.40
2023-08-11T06:28:09.721Z,5.90
2023-08-11T06:29:09.707Z,6.10
2023-08-11T06:30:09.684Z,5.80
2023-08-11T06:31:09.712Z,5.60
2023-08-11T06:32:09.838Z,5.50
2023-08-11T06:33:09.707Z,5.80
2023-08-11T06:34:09.707Z,5.80
2023-08-11T06:35:09.705Z,5.80
2023-08-11T06:36:09.661Z,6.10
2023-08-11T06:37:09.869Z,6.00
2023-08-11T06:38:09.589Z,5.40
2023-08-11T06:39:09.614Z,5.50
2023-08-11T06:40:09.574Z,5.70
2023-08-11T06:41:09.588Z,5.70
2023-08-11T06:42:09.660Z,6.00
2023-08-11T06:43:09.624Z,5.80
2023-08-11T06:44:09.527Z,6.00
2023-08-11T06:45:09.550Z,6.10
2023-08-11T06:46:09.565Z,6.10
2023-08-11T06:47:09.734Z,5.90
2023-08-11T06:48:09.521Z,5.40
2023-08-11T06:49:09.487Z,5.90
2023-08-11T06:50:09.520Z,6.00
2023-08-11T06:51:09.468Z,5.50
2023-08-11T06:52:09.499Z,6.00
2023-08-11T06:53:09.449Z,6.00
2023-08-11T06:54:09.481Z,5.40
2023-08-11T06:55:09.427Z,6.40
2023-08-11T06:56:09.401Z,5.90
2023-08-11T06:57:09.693Z,5.20
2023-08-11T06:58:09.373Z,5.60
2023-08-11T06:59:09.384Z,5.20
2023-08-11T07:00:09.402Z,5.50
2023-08-11T07:01:09.451Z,5.60
2023-08-11T07:02:09.379Z,5.70
2023-08-11T07:03:09.421Z,5.20
2023-08-11T07:04:09.440Z,5.30
2023-08-11T07:05:09.315Z,5.80
2023-08-11T07:06:09.280Z,5.60
2023-08-11T07:07:09.463Z,5.50
2023-08-11T07:08:09.255Z,5.60
2023-08-11T07:09:09.273Z,5.40
2023-08-11T07:10:09.239Z,5.50
2023-08-11T07:11:09.258Z,5.50
2023-08-11T07:12:09.291Z,5.30
2023-08-11T07:13:09.234Z,5.80
2023-08-11T07:14:09.194Z,4.90
2023-08-11T07:15:09.205Z,5.10
2023-08-11T07:16:09.190Z,5.20
2023-08-11T07:17:09.457Z,5.20
2023-08-11T07:18:09.199Z,5.20
2023-08-11T07:19:09.157Z,5.30
2023-08-11T07:20:09.147Z,5.50
2023-08-11T07:21:09.201Z,4.90
2023-08-11T07:22:09.110Z,5.00
2023-08-11T07:23:09.161Z,5.00
2023-08-11T07:24:09.091Z,5.60
2023-08-11T07:25:09.089Z,5.00
2023-08-11T07:26:09.073Z,5.00
2023-08-11T07:27:09.305Z,5.10
2023-08-11T07:28:09.064Z,5.10
2023-08-11T07:29:09.105Z,5.20
2023-08-11T07:30:09.015Z,5.20
2023-08-11T07:31:09.135Z,4.90
2023-08-11T07:32:09.056Z,5.20
2023-08-11T07:33:09.092Z,5.70
2023-08-11T07:34:09.052Z,5.10
2023-08-11T07:35:09.027Z,4.60
2023-08-11T07:36:08.997Z,5.20
2023-08-11T07:37:09.211Z,5.00
2023-08-11T07:38:12.117Z,4.90
2023-08-11T07:39:21.795Z,5.30
2023-08-11T07:40:08.909Z,5.00
2023-08-11T07:41:08.960Z,4.80
2023-08-11T07:42:08.890Z,5.40
2023-08-11T07:43:08.937Z,5.50
2023-08-11T07:44:08.905Z,4.90
2023-08-11T07:45:08.877Z,4.90
2023-08-11T07:46:08.899Z,5.10
2023-08-11T07:47:09.214Z,4.90
2023-08-11T07:48:08.840Z,4.80
2023-08-11T07:49:08.825Z,5.20
2023-08-11T07:50:08.811Z,5.00
2023-08-11T07:51:08.807Z,5.10
2023-08-11T07:52:08.763Z,5.20
2023-08-11T07:53:09.454Z,5.40
2023-08-11T07:54:08.784Z,5.10
2023-08-11T07:55:08.821Z,5.30
2023-08-11T07:56:08.765Z,4.80
2023-08-11T07:57:08.933Z,5.00
2023-08-11T07:58:08.774Z,5.20
2023-08-11T07:59:08.767Z,5.20
2023-08-11T08:00:08.665Z,5.20
2023-08-11T08:01:08.749Z,5.10
2023-08-11T08:02:08.713Z,5.30
2023-08-11T08:03:08.750Z,5.20
2023-08-11T08:04:08.775Z,5.10
2023-08-11T08:05:12.803Z,5.10
2023-08-11T08:06:08.611Z,4.90
2023-08-11T08:07:08.970Z,4.90
2023-08-11T08:08:08.588Z,5.20
2023-08-11T08:09:08.600Z,5.30
2023-08-11T08:10:08.756Z,5.10
2023-08-11T08:11:08.583Z,4.60
2023-08-11T08:12:08.579Z,5.40
2023-08-11T08:13:08.607Z,5.20
2023-08-11T08:14:08.521Z,5.00
2023-08-11T08:15:08.532Z,4.90
2023-08-11T08:16:08.594Z,5.10
2023-08-11T08:17:08.730Z,5.10
2023-08-11T08:18:08.547Z,5.50
2023-08-11T08:19:08.498Z,5.10
2023-08-11T08:20:08.484Z,5.00
2023-08-11T08:21:08.489Z,4.80
2023-08-11T08:22:08.457Z,5.40
2023-08-11T08:23:10.099Z,4.90
2023-08-11T08:24:08.407Z,4.90
2023-08-11T08:25:08.471Z,5.20
2023-08-11T08:26:08.447Z,4.90
2023-08-11T08:27:08.847Z,4.80
2023-08-11T08:28:08.456Z,5.00
2023-08-11T08:29:08.407Z,4.90
2023-08-11T08:30:08.359Z,4.90
2023-08-11T08:31:08.419Z,5.10
2023-08-11T08:32:08.373Z,5.30
2023-08-11T08:33:08.404Z,4.60
2023-08-11T08:34:08.518Z,5.10
2023-08-11T08:35:08.323Z,5.00
2023-08-11T08:36:08.330Z,5.20
2023-08-11T08:37:08.492Z,4.80
2023-08-11T08:38:08.263Z,4.80
2023-08-11T08:39:09.445Z,5.10
2023-08-11T08:40:08.295Z,4.80
2023-08-11T08:41:08.253Z,4.90
2023-08-11T08:42:08.214Z,4.80
2023-08-11T08:43:08.301Z,4.50
2023-08-11T08:44:08.236Z,5.00
2023-08-11T08:45:08.257Z,5.00
2023-08-11T08:46:08.270Z,4.80
2023-08-11T08:47:08.398Z,4.60
2023-08-11T08:48:08.323Z,5.50
2023-08-11T08:49:08.182Z,4.90
2023-08-11T08:50:08.120Z,4.80
2023-08-11T08:51:08.146Z,4.70
2023-08-11T08:52:08.197Z,5.30
2023-08-11T08:53:08.114Z,4.60
2023-08-11T08:54:08.073Z,4.80
2023-08-11T08:55:08.186Z,4.70
2023-08-11T08:56:08.067Z,4.80
2023-08-11T08:57:08.452Z,5.20
2023-08-11T08:58:08.121Z,4.90
2023-08-11T08:59:08.046Z,4.90
2023-08-11T09:00:08.011Z,5.10
2023-08-11T09:01:08.107Z,4.40
2023-08-11T09:02:08.143Z,4.80
2023-08-11T09:03:08.192Z,4.60
2023-08-11T09:04:08.189Z,4.80
2023-08-11T09:05:07.978Z,5.30
2023-08-11T09:06:08.610Z,5.00
2023-08-11T09:07:08.301Z,5.40
2023-08-11T09:08:07.962Z,5.20
2023-08-11T09:09:07.982Z,5.10
2023-08-11T09:10:07.904Z,4.70
2023-08-11T09:11:07.917Z,4.90
2023-08-11T09:12:08.374Z,5.00
2023-08-11T09:13:07.906Z,5.10
2023-08-11T09:14:07.868Z,5.20
2023-08-11T09:15:07.876Z,5.10
2023-08-11T09:16:07.874Z,4.90
2023-08-11T09:17:07.918Z,5.00
2023-08-11T09:18:07.941Z,5.10
2023-08-11T09:19:07.831Z,5.50
2023-08-11T09:20:07.818Z,5.50
2023-08-11T09:21:07.814Z,5.30
2023-08-11T09:22:07.991Z,5.30
2023-08-11T09:23:07.880Z,5.40
2023-08-11T09:24:07.825Z,5.40
2023-08-11T09:25:07.810Z,5.50
2023-08-11T09:26:07.741Z,5.00
2023-08-11T09:27:07.848Z,5.20
2023-08-11T09:28:07.713Z,5.40
2023-08-11T09:29:07.724Z,5.10
2023-08-11T09:30:07.692Z,5.50
2023-08-11T09:31:07.694Z,5.10
2023-08-11T09:32:08.227Z,5.40
2023-08-11T09:33:08.506Z,5.00
2023-08-11T09:34:07.718Z,5.60
2023-08-11T09:35:07.647Z,5.50
2023-08-11T09:36:07.619Z,5.90
2023-08-11T09:37:07.636Z,5.10
2023-08-11T09:38:07.620Z,5.20
2023-08-11T09:39:07.663Z,5.80
2023-08-11T09:40:07.600Z,5.00
2023-08-11T09:41:07.590Z,5.10
2023-08-11T09:42:07.779Z,5.30
2023-08-11T09:43:07.606Z,5.50
2023-08-11T09:44:07.644Z,4.70
2023-08-11T09:45:07.584Z,5.60
2023-08-11T09:46:09.038Z,5.50
2023-08-11T09:47:15.946Z,5.40
2023-08-11T09:48:07.512Z,5.20
2023-08-11T09:49:07.507Z,5.30
2023-08-11T09:50:07.462Z,5.20
2023-08-11T09:51:07.537Z,5.60
2023-08-11T09:52:07.699Z,5.10
2023-08-11T09:53:07.494Z,5.00
2023-08-11T09:54:07.417Z,5.50
2023-08-11T09:55:07.425Z,5.30
2023-08-11T09:56:07.421Z,5.80
2023-08-11T09:57:07.370Z,5.50
2023-08-11T09:58:07.397Z,5.70
2023-08-11T09:59:07.404Z,5.50
2023-08-11T10:00:08.044Z,5.90
2023-08-11T10:01:19.133Z,5.30
2023-08-11T10:02:07.726Z,6.00
2023-08-11T10:03:07.361Z,5.70
2023-08-11T10:04:07.409Z,5.30
2023-08-11T10:05:07.349Z,5.70
2023-08-11T10:06:07.301Z,5.80
2023-08-11T10:07:07.317Z,6.00
2023-08-11T10:08:07.302Z,5.70
2023-08-11T10:09:07.311Z,5.70
2023-08-11T10:10:07.389Z,5.90
2023-08-11T10:11:07.309Z,6.20
2023-08-11T10:12:07.441Z,6.00
2023-08-11T10:13:07.257Z,5.90
2023-08-11T10:14:07.219Z,6.40
2023-08-11T10:15:07.184Z,6.40
2023-08-11T10:16:07.336Z,6.50
2023-08-11T10:17:07.309Z,7.00
2023-08-11T10:18:07.194Z,7.30
2023-08-11T10:19:07.202Z,6.80
2023-08-11T10:20:07.210Z,7.10
2023-08-11T10:21:07.119Z,7.00
2023-08-11T10:22:07.349Z,7.30
2023-08-11T10:23:07.161Z,7.50
2023-08-11T10:24:07.097Z,6.90
2023-08-11T10:25:07.117Z,7.20
2023-08-11T10:26:07.086Z,6.40
2023-08-11T10:27:09.054Z,7.00
2023-08-11T10:28:07.073Z,6.10
2023-08-11T10:29:07.075Z,6.30
2023-08-11T10:30:07.033Z,6.10
2023-08-11T10:31:07.037Z,6.00
2023-08-11T10:32:07.285Z,5.80
2023-08-11T10:33:09.577Z,6.20
2023-08-11T10:34:07.058Z,6.50
2023-08-11T10:35:07.025Z,5.90
2023-08-11T10:36:06.977Z,5.40
2023-08-11T10:37:06.933Z,5.70
2023-08-11T10:38:06.958Z,5.60
2023-08-11T10:39:06.920Z,6.10
2023-08-11T10:40:07.031Z,5.60
2023-08-11T10:41:06.910Z,5.50
2023-08-11T10:42:07.067Z,5.60
2023-08-11T10:43:06.872Z,5.50
2023-08-11T10:44:06.880Z,6.00
2023-08-11T10:45:06.856Z,6.00
2023-08-11T10:46:06.864Z,5.90
2023-08-11T10:47:06.851Z,5.70
2023-08-11T10:48:06.871Z,6.30
2023-08-11T10:49:06.794Z,6.50
2023-08-11T10:50:06.829Z,5.70
2023-08-11T10:51:06.796Z,6.10
2023-08-11T10:52:06.894Z,6.40
2023-08-11T10:53:06.760Z,5.90
2023-08-11T10:54:06.764Z,5.70
2023-08-11T10:55:06.740Z,5.90
2023-08-11T10:56:06.746Z,6.00
2023-08-11T10:57:06.756Z,6.80
2023-08-11T10:58:06.873Z,6.10
2023-08-11T10:59:06.805Z,5.70
2023-08-11T11:00:06.751Z,5.40
2023-08-11T11:01:06.762Z,6.30
2023-08-11T11:02:06.681Z,5.80
2023-08-11T11:03:06.709Z,6.10
2023-08-11T11:04:06.717Z,6.50
2023-08-11T11:05:06.698Z,7.20
2023-08-11T11:06:06.692Z,17.40
2023-08-11T11:07:07.197Z,52.60
2023-08-11T11:08:06.686Z,49.10
2023-08-11T11:09:06.604Z,27.90
2023-08-11T11:10:06.603Z,25.50
2023-08-11T11:11:06.551Z,25.00
2023-08-11T11:12:06.645Z,22.40
2023-08-11T11:13:06.564Z,21.10
2023-08-11T11:14:06.620Z,20.00
2023-08-11T11:15:06.509Z,19.20
2023-08-11T11:16:06.691Z,18.30
2023-08-11T11:17:06.565Z,18.20
2023-08-11T11:18:06.556Z,16.40
2023-08-11T11:19:06.568Z,17.40
2023-08-11T11:20:06.599Z,16.70
2023-08-11T11:21:06.451Z,17.20
2023-08-11T11:22:06.501Z,16.70
2023-08-11T11:23:06.599Z,16.60
2023-08-11T11:24:06.449Z,16.20
2023-08-11T11:25:06.403Z,15.20
2023-08-11T11:26:06.458Z,15.00
2023-08-11T11:27:06.706Z,16.10
2023-08-11T11:28:06.441Z,16.40
2023-08-11T11:29:06.622Z,29.00
2023-08-11T11:30:06.390Z,50.90
2023-08-11T11:31:06.439Z,49.30
2023-08-11T11:32:06.401Z,30.10
2023-08-11T11:33:06.346Z,24.10
2023-08-11T11:34:06.464Z,22.20
2023-08-11T11:35:06.286Z,19.80
2023-08-11T11:36:06.304Z,16.90
2023-08-11T11:37:06.313Z,17.20
2023-08-11T11:38:06.384Z,18.20
2023-08-11T11:39:06.403Z,16.00
2023-08-11T11:40:06.270Z,12.10
2023-08-11T11:41:06.228Z,12.00
2023-08-11T11:42:06.238Z,15.50
2023-08-11T11:43:06.197Z,12.90
2023-08-11T11:44:06.216Z,10.50
2023-08-11T11:45:06.202Z,11.90
2023-08-11T11:46:06.230Z,12.20
2023-08-11T11:47:06.983Z,11.70
2023-08-11T11:48:06.194Z,11.50
2023-08-11T11:49:12.905Z,8.10
2023-08-11T11:50:06.149Z,7.10
2023-08-11T11:51:06.725Z,7.40
2023-08-11T11:52:06.242Z,6.70
2023-08-11T11:53:06.088Z,7.60
2023-08-11T11:54:06.108Z,5.90
2023-08-11T11:55:06.061Z,5.70
2023-08-11T11:56:06.745Z,5.00
2023-08-11T11:57:07.614Z,5.20
2023-08-11T11:58:06.072Z,5.80
2023-08-11T11:59:06.041Z,4.90
2023-08-11T12:00:06.029Z,4.50
2023-08-11T12:01:06.056Z,4.50
2023-08-11T12:02:06.216Z,4.40
2023-08-11T12:03:06.048Z,4.80
2023-08-11T12:04:06.053Z,4.60
2023-08-11T12:05:06.073Z,4.50
2023-08-11T12:06:05.964Z,4.30
2023-08-11T12:07:05.966Z,4.40
2023-08-11T12:08:05.956Z,3.80
2023-08-11T12:09:05.965Z,4.50
2023-08-11T12:10:06.038Z,4.10
2023-08-11T12:11:05.916Z,4.00
2023-08-11T12:12:05.899Z,4.20
2023-08-11T12:13:05.856Z,3.90
2023-08-11T12:14:05.883Z,4.10
2023-08-11T12:15:05.922Z,4.00
2023-08-11T12:16:06.182Z,4.10
2023-08-11T12:17:06.730Z,4.30
2023-08-11T12:18:05.856Z,3.90
2023-08-11T12:19:07.438Z,4.40
2023-08-11T12:20:05.890Z,4.10
2023-08-11T12:21:05.882Z,3.60
2023-08-11T12:22:05.871Z,4.00
2023-08-11T12:23:05.742Z,4.10
2023-08-11T12:24:05.856Z,4.20
2023-08-11T12:25:06.736Z,3.90
2023-08-11T12:26:05.741Z,3.90
2023-08-11T12:27:05.731Z,4.00
2023-08-11T12:28:05.846Z,3.90
2023-08-11T12:29:05.727Z,4.40
2023-08-11T12:30:05.703Z,4.00
2023-08-11T12:31:05.658Z,4.00
2023-08-11T12:32:05.734Z,4.50
2023-08-11T12:33:05.706Z,4.10
2023-08-11T12:34:05.656Z,3.70
2023-08-11T12:35:05.628Z,3.80
2023-08-11T12:36:05.632Z,3.80
2023-08-11T12:37:05.599Z,3.70
2023-08-11T12:38:05.604Z,3.60
2023-08-11T12:39:05.625Z,4.10
2023-08-11T12:40:05.608Z,3.50
2023-08-11T12:41:05.550Z,4.00
2023-08-11T12:42:05.689Z,3.80
2023-08-11T12:43:05.533Z,4.00
2023-08-11T12:44:05.596Z,4.00
2023-08-11T12:45:06.206Z,3.80
2023-08-11T12:46:05.576Z,3.90
2023-08-11T12:47:05.564Z,4.10
2023-08-11T12:48:05.499Z,3.70
2023-08-11T12:49:05.460Z,3.80
2023-08-11T12:50:05.485Z,3.50
2023-08-11T12:51:05.488Z,4.10
2023-08-11T12:52:06.269Z,3.90
2023-08-11T12:53:05.423Z,3.70
2023-08-11T12:54:05.431Z,3.70
2023-08-11T12:55:05.420Z,3.80
2023-08-11T12:56:05.467Z,3.70
2023-08-11T12:57:05.379Z,3.90
2023-08-11T12:58:05.431Z,3.50
2023-08-11T12:59:05.346Z,3.70
2023-08-11T13:00:05.389Z,3.40
2023-08-11T13:01:05.375Z,3.70
2023-08-11T13:02:05.530Z,3.70
2023-08-11T13:03:05.566Z,3.70
2023-08-11T13:04:05.619Z,3.80
2023-08-11T13:05:05.386Z,4.00
2023-08-11T13:06:05.370Z,3.60
2023-08-11T13:07:05.348Z,3.80
2023-08-11T13:08:05.407Z,3.60
2023-08-11T13:09:05.231Z,3.80
2023-08-11T13:10:05.592Z,3.50
2023-08-11T13:11:05.227Z,3.70
2023-08-11T13:12:05.273Z,3.80
2023-08-11T13:13:05.184Z,4.20
2023-08-11T13:14:05.244Z,3.90